sensor_id;sensor_type;location;lat;lon;timestamp;pressure;altitude;pressure_sealevel;temperature;humidity
11648;BME280;5880;52.342;9.662;2023-04-20T00:01:45;101477.78;;;11.65;39.66
11648;BME280;5880;52.342;9.662;2023-04-20T00:04:11;101465.56;;;11.61;39.76
11648;BME280;5880;52.342;9.662;2023-04-20T00:06:37;101468.13;;;11.56;39.80
11648;BME280;5880;52.342;9.662;2023-04-20T00:09:03;101469.00;;;11.50;40.45
11648;BME280;5880;52.342;9.662;2023-04-20T00:11:29;101455.97;;;11.45;40.16
11648;BME280;5880;52.342;9.662;2023-04-20T00:13:55;101460.19;;;11.48;39.74
11648;BME280;5880;52.342;9.662;2023-04-20T00:16:21;101462.09;;;11.47;39.75
11648;BME280;5880;52.342;9.662;2023-04-20T00:18:47;101457.59;;;11.59;39.82
11648;BME280;5880;52.342;9.662;2023-04-20T00:21:12;101455.47;;;11.61;39.93
11648;BME280;5880;52.342;9.662;2023-04-20T00:23:38;101457.59;;;11.59;40.51
11648;BME280;5880;52.342;9.662;2023-04-20T00:26:04;101452.31;;;11.58;39.91
11648;BME280;5880;52.342;9.662;2023-04-20T00:28:30;101453.56;;;11.62;39.47
11648;BME280;5880;52.342;9.662;2023-04-20T00:30:56;101439.03;;;11.61;39.43
11648;BME280;5880;52.342;9.662;2023-04-20T00:33:21;101436.25;;;11.68;39.76
11648;BME280;5880;52.342;9.662;2023-04-20T00:35:47;101444.88;;;11.72;39.59
11648;BME280;5880;52.342;9.662;2023-04-20T00:38:13;101442.75;;;11.74;39.67
11648;BME280;5880;52.342;9.662;2023-04-20T00:40:39;101438.13;;;11.74;39.74
11648;BME280;5880;52.342;9.662;2023-04-20T00:43:11;101446.75;;;11.78;39.97
11648;BME280;5880;52.342;9.662;2023-04-20T00:45:37;101441.03;;;11.79;39.62
11648;BME280;5880;52.342;9.662;2023-04-20T00:48:04;101440.59;;;11.82;39.96
11648;BME280;5880;52.342;9.662;2023-04-20T00:50:30;101440.19;;;11.79;40.35
11648;BME280;5880;52.342;9.662;2023-04-20T00:52:56;101440.03;;;11.74;40.57
11648;BME280;5880;52.342;9.662;2023-04-20T00:55:22;101433.75;;;11.67;40.77
11648;BME280;5880;52.342;9.662;2023-04-20T00:57:48;101436.06;;;11.63;41.00
11648;BME280;5880;52.342;9.662;2023-04-20T01:00:14;101427.22;;;11.61;40.66
11648;BME280;5880;52.342;9.662;2023-04-20T01:02:40;101426.19;;;11.62;40.66
11648;BME280;5880;52.342;9.662;2023-04-20T01:05:06;101428.72;;;11.64;40.76
11648;BME280;5880;52.342;9.662;2023-04-20T01:07:32;101427.66;;;11.65;40.52
11648;BME280;5880;52.342;9.662;2023-04-20T01:09:58;101423.84;;;11.66;40.42
11648;BME280;5880;52.342;9.662;2023-04-20T01:12:24;101418.81;;;11.62;40.84
11648;BME280;5880;52.342;9.662;2023-04-20T01:14:50;101404.50;;;11.60;40.58
11648;BME280;5880;52.342;9.662;2023-04-20T01:17:16;101398.41;;;11.58;40.83
11648;BME280;5880;52.342;9.662;2023-04-20T01:19:41;101405.16;;;11.56;40.72
11648;BME280;5880;52.342;9.662;2023-04-20T01:22:16;101399.50;;;11.51;41.36
11648;BME280;5880;52.342;9.662;2023-04-20T01:24:42;101393.44;;;11.42;41.21
11648;BME280;5880;52.342;9.662;2023-04-20T01:27:08;101405.44;;;11.48;41.18
11648;BME280;5880;52.342;9.662;2023-04-20T01:29:34;101396.13;;;11.49;41.21
11648;BME280;5880;52.342;9.662;2023-04-20T01:32:00;101399.50;;;11.51;41.15
11648;BME280;5880;52.342;9.662;2023-04-20T01:34:26;101392.56;;;11.48;41.02
11648;BME280;5880;52.342;9.662;2023-04-20T01:36:51;101401.63;;;11.49;41.72
11648;BME280;5880;52.342;9.662;2023-04-20T01:39:17;101389.00;;;11.48;41.51
11648;BME280;5880;52.342;9.662;2023-04-20T01:41:43;101389.84;;;11.48;41.54
11648;BME280;5880;52.342;9.662;2023-04-20T01:44:08;101383.75;;;11.46;41.40
11648;BME280;5880;52.342;9.662;2023-04-20T01:46:38;101375.06;;;11.49;41.30
11648;BME280;5880;52.342;9.662;2023-04-20T01:49:05;101376.16;;;11.48;41.51
11648;BME280;5880;52.342;9.662;2023-04-20T01:51:33;101370.22;;;11.51;41.43
11648;BME280;5880;52.342;9.662;2023-04-20T01:53:59;101356.16;;;11.48;41.51
11648;BME280;5880;52.342;9.662;2023-04-20T01:56:25;101360.09;;;11.52;41.39
11648;BME280;5880;52.342;9.662;2023-04-20T01:58:51;101353.38;;;11.54;41.34
11648;BME280;5880;52.342;9.662;2023-04-20T02:01:17;101360.06;;;11.58;41.21
11648;BME280;5880;52.342;9.662;2023-04-20T02:03:42;101352.72;;;11.59;41.24
11648;BME280;5880;52.342;9.662;2023-04-20T02:06:08;101342.41;;;11.54;41.11
11648;BME280;5880;52.342;9.662;2023-04-20T02:08:34;101352.09;;;11.57;41.57
11648;BME280;5880;52.342;9.662;2023-04-20T02:11:00;101355.69;;;11.51;41.69
11648;BME280;5880;52.342;9.662;2023-04-20T02:13:26;101361.59;;;11.54;41.78
11648;BME280;5880;52.342;9.662;2023-04-20T02:15:52;101357.38;;;11.52;41.80
11648;BME280;5880;52.342;9.662;2023-04-20T02:18:18;101365.56;;;11.52;41.82
11648;BME280;5880;52.342;9.662;2023-04-20T02:20:45;101360.50;;;11.55;41.36
11648;BME280;5880;52.342;9.662;2023-04-20T02:23:11;101359.69;;;11.55;41.74
11648;BME280;5880;52.342;9.662;2023-04-20T02:25:37;101351.03;;;11.58;41.59
11648;BME280;5880;52.342;9.662;2023-04-20T02:28:03;101350.19;;;11.57;41.91
11648;BME280;5880;52.342;9.662;2023-04-20T02:30:29;101354.63;;;11.52;42.11
11648;BME280;5880;52.342;9.662;2023-04-20T02:32:55;101349.41;;;11.50;42.15
11648;BME280;5880;52.342;9.662;2023-04-20T02:35:21;101339.94;;;11.46;42.30
11648;BME280;5880;52.342;9.662;2023-04-20T02:37:47;101347.31;;;11.46;42.54
11648;BME280;5880;52.342;9.662;2023-04-20T02:40:13;101347.97;;;11.41;42.68
11648;BME280;5880;52.342;9.662;2023-04-20T02:42:38;101344.63;;;11.39;43.01
11648;BME280;5880;52.342;9.662;2023-04-20T02:45:05;101345.06;;;11.36;42.94
11648;BME280;5880;52.342;9.662;2023-04-20T02:47:31;101337.06;;;11.34;42.90
11648;BME280;5880;52.342;9.662;2023-04-20T02:49:56;101347.38;;;11.32;42.81
11648;BME280;5880;52.342;9.662;2023-04-20T02:52:22;101333.50;;;11.34;42.80
11648;BME280;5880;52.342;9.662;2023-04-20T02:54:48;101348.63;;;11.36;42.70
11648;BME280;5880;52.342;9.662;2023-04-20T02:57:13;101337.69;;;11.36;42.79
11648;BME280;5880;52.342;9.662;2023-04-20T02:59:39;101329.06;;;11.33;42.93
11648;BME280;5880;52.342;9.662;2023-04-20T03:02:05;101335.41;;;11.33;42.80
11648;BME280;5880;52.342;9.662;2023-04-20T03:04:31;101325.78;;;11.24;43.35
11648;BME280;5880;52.342;9.662;2023-04-20T03:06:57;101341.13;;;11.25;43.70
11648;BME280;5880;52.342;9.662;2023-04-20T03:09:23;101334.41;;;11.21;43.60
11648;BME280;5880;52.342;9.662;2023-04-20T03:11:49;101337.59;;;11.18;43.97
11648;BME280;5880;52.342;9.662;2023-04-20T03:14:15;101325.38;;;11.14;43.93
11648;BME280;5880;52.342;9.662;2023-04-20T03:16:41;101335.69;;;11.18;43.68
11648;BME280;5880;52.342;9.662;2023-04-20T03:19:07;101337.38;;;11.19;43.87
11648;BME280;5880;52.342;9.662;2023-04-20T03:21:33;101330.19;;;11.18;44.01
11648;BME280;5880;52.342;9.662;2023-04-20T03:24:00;101331.91;;;11.19;43.82
11648;BME280;5880;52.342;9.662;2023-04-20T03:26:26;101329.78;;;11.22;43.99
11648;BME280;5880;52.342;9.662;2023-04-20T03:28:52;101335.84;;;11.24;43.90
11648;BME280;5880;52.342;9.662;2023-04-20T03:31:18;101326.84;;;11.16;44.49
11648;BME280;5880;52.342;9.662;2023-04-20T03:33:43;101335.91;;;11.17;44.65
11648;BME280;5880;52.342;9.662;2023-04-20T03:36:09;101335.06;;;11.16;44.13
11648;BME280;5880;52.342;9.662;2023-04-20T03:38:38;101344.13;;;11.17;44.28
11648;BME280;5880;52.342;9.662;2023-04-20T03:41:04;101340.34;;;11.11;44.46
11648;BME280;5880;52.342;9.662;2023-04-20T03:43:30;101342.22;;;11.17;44.31
11648;BME280;5880;52.342;9.662;2023-04-20T03:45:56;101341.16;;;11.18;44.44
11648;BME280;5880;52.342;9.662;2023-04-20T03:48:21;101339.47;;;11.17;45.21
11648;BME280;5880;52.342;9.662;2023-04-20T03:50:47;101338.50;;;11.05;45.60
11648;BME280;5880;52.342;9.662;2023-04-20T03:53:12;101349.44;;;11.05;44.77
11648;BME280;5880;52.342;9.662;2023-04-20T03:55:38;101339.53;;;11.04;44.45
11648;BME280;5880;52.342;9.662;2023-04-20T03:58:04;101335.78;;;11.05;44.95
11648;BME280;5880;52.342;9.662;2023-04-20T04:00:31;101346.72;;;11.05;44.80
11648;BME280;5880;52.342;9.662;2023-04-20T04:02:57;101334.91;;;11.05;44.86
11648;BME280;5880;52.342;9.662;2023-04-20T04:05:24;101337.44;;;11.06;44.74
11648;BME280;5880;52.342;9.662;2023-04-20T04:07:50;101341.63;;;11.09;44.93
11648;BME280;5880;52.342;9.662;2023-04-20T04:10:16;101346.91;;;11.04;44.92
11648;BME280;5880;52.342;9.662;2023-04-20T04:12:44;101335.34;;;11.02;45.07
11648;BME280;5880;52.342;9.662;2023-04-20T04:15:10;101340.00;;;11.01;45.13
11648;BME280;5880;52.342;9.662;2023-04-20T04:17:37;101346.09;;;11.03;44.90
11648;BME280;5880;52.342;9.662;2023-04-20T04:20:04;101328.41;;;10.99;44.93
11648;BME280;5880;52.342;9.662;2023-04-20T04:22:32;101338.50;;;11.05;44.85
11648;BME280;5880;52.342;9.662;2023-04-20T04:24:58;101341.00;;;11.07;44.86
11648;BME280;5880;52.342;9.662;2023-04-20T04:27:24;101345.19;;;11.09;44.97
11648;BME280;5880;52.342;9.662;2023-04-20T04:29:49;101342.66;;;11.14;44.66
11648;BME280;5880;52.342;9.662;2023-04-20T04:32:16;101344.97;;;11.17;44.82
11648;BME280;5880;52.342;9.662;2023-04-20T04:34:41;101337.59;;;11.18;45.35
11648;BME280;5880;52.342;9.662;2023-04-20T04:37:12;101342.44;;;11.16;45.48
11648;BME280;5880;52.342;9.662;2023-04-20T04:39:39;101346.25;;;11.15;45.06
11648;BME280;5880;52.342;9.662;2023-04-20T04:42:04;101336.31;;;11.20;44.83
11648;BME280;5880;52.342;9.662;2023-04-20T04:44:30;101331.88;;;11.26;45.10
11648;BME280;5880;52.342;9.662;2023-04-20T04:46:56;101352.66;;;11.34;44.81
11648;BME280;5880;52.342;9.662;2023-04-20T04:49:22;101346.09;;;11.35;45.25
11648;BME280;5880;52.342;9.662;2023-04-20T04:51:51;101340.47;;;11.30;45.33
11648;BME280;5880;52.342;9.662;2023-04-20T04:54:16;101334.97;;;11.30;45.35
11648;BME280;5880;52.342;9.662;2023-04-20T04:56:42;101327.22;;;11.27;45.44
11648;BME280;5880;52.342;9.662;2023-04-20T04:59:08;101341.91;;;11.32;45.24
11648;BME280;5880;52.342;9.662;2023-04-20T05:01:33;101322.59;;;11.27;45.23
11648;BME280;5880;52.342;9.662;2023-04-20T05:03:59;101347.56;;;11.37;45.12
11648;BME280;5880;52.342;9.662;2023-04-20T05:06:25;101334.94;;;11.36;45.07
11648;BME280;5880;52.342;9.662;2023-04-20T05:08:51;101338.06;;;11.40;45.07
11648;BME280;5880;52.342;9.662;2023-04-20T05:11:17;101345.03;;;11.43;45.24
11648;BME280;5880;52.342;9.662;2023-04-20T05:13:42;101352.16;;;11.44;44.95
11648;BME280;5880;52.342;9.662;2023-04-20T05:16:08;101336.63;;;11.37;45.09
11648;BME280;5880;52.342;9.662;2023-04-20T05:18:34;101353.44;;;11.41;45.47
11648;BME280;5880;52.342;9.662;2023-04-20T05:21:00;101350.72;;;11.41;45.23
11648;BME280;5880;52.342;9.662;2023-04-20T05:23:26;101358.72;;;11.43;45.05
11648;BME280;5880;52.342;9.662;2023-04-20T05:25:52;101354.06;;;11.43;45.13
11648;BME280;5880;52.342;9.662;2023-04-20T05:28:17;101349.25;;;11.38;45.59
11648;BME280;5880;52.342;9.662;2023-04-20T05:30:43;101362.50;;;11.41;45.46
11648;BME280;5880;52.342;9.662;2023-04-20T05:33:09;101360.22;;;11.38;45.74
11648;BME280;5880;52.342;9.662;2023-04-20T05:35:35;101350.13;;;11.32;46.00
11648;BME280;5880;52.342;9.662;2023-04-20T05:38:00;101362.31;;;11.36;46.10
11648;BME280;5880;52.342;9.662;2023-04-20T05:40:31;101360.63;;;11.35;45.63
11648;BME280;5880;52.342;9.662;2023-04-20T05:42:58;101366.72;;;11.37;45.54
11648;BME280;5880;52.342;9.662;2023-04-20T05:45:24;101361.66;;;11.41;45.58
11648;BME280;5880;52.342;9.662;2023-04-20T05:47:54;101368.59;;;11.44;45.61
11648;BME280;5880;52.342;9.662;2023-04-20T05:50:24;101377.25;;;11.40;46.37
11648;BME280;5880;52.342;9.662;2023-04-20T05:52:51;101378.75;;;11.36;46.10
11648;BME280;5880;52.342;9.662;2023-04-20T05:55:18;101384.44;;;11.35;46.68
11648;BME280;5880;52.342;9.662;2023-04-20T05:57:44;101381.06;;;11.33;46.55
11648;BME280;5880;52.342;9.662;2023-04-20T06:00:12;101377.91;;;11.36;46.25
11648;BME280;5880;52.342;9.662;2023-04-20T06:02:38;101371.81;;;11.34;46.36
11648;BME280;5880;52.342;9.662;2023-04-20T06:05:05;101374.69;;;11.46;46.00
11648;BME280;5880;52.342;9.662;2023-04-20T06:07:31;101374.25;;;11.49;46.21
11648;BME280;5880;52.342;9.662;2023-04-20T06:09:57;101378.66;;;11.50;46.30
11648;BME280;5880;52.342;9.662;2023-04-20T06:12:25;101371.94;;;11.46;46.31
11648;BME280;5880;52.342;9.662;2023-04-20T06:14:51;101369.59;;;11.49;46.44
11648;BME280;5880;52.342;9.662;2023-04-20T06:17:17;101375.94;;;11.50;46.51
11648;BME280;5880;52.342;9.662;2023-04-20T06:19:42;101382.88;;;11.52;46.97
11648;BME280;5880;52.342;9.662;2023-04-20T06:22:09;101369.19;;;11.52;46.67
11648;BME280;5880;52.342;9.662;2023-04-20T06:24:35;101373.38;;;11.55;46.82
11648;BME280;5880;52.342;9.662;2023-04-20T06:27:01;101371.91;;;11.52;46.86
11648;BME280;5880;52.342;9.662;2023-04-20T06:29:27;101366.44;;;11.52;46.95
11648;BME280;5880;52.342;9.662;2023-04-20T06:31:53;101363.47;;;11.54;47.53
11648;BME280;5880;52.342;9.662;2023-04-20T06:34:19;101367.47;;;11.51;47.57
11648;BME280;5880;52.342;9.662;2023-04-20T06:36:45;101371.50;;;11.49;47.70
11648;BME280;5880;52.342;9.662;2023-04-20T06:39:10;101362.84;;;11.52;47.68
11648;BME280;5880;52.342;9.662;2023-04-20T06:41:39;101367.44;;;11.58;47.40
11648;BME280;5880;52.342;9.662;2023-04-20T06:44:05;101364.50;;;11.59;47.53
11648;BME280;5880;52.342;9.662;2023-04-20T06:46:31;101369.53;;;11.62;47.25
11648;BME280;5880;52.342;9.662;2023-04-20T06:48:57;101374.53;;;11.66;47.06
11648;BME280;5880;52.342;9.662;2023-04-20T06:51:24;101366.31;;;11.66;47.20
11648;BME280;5880;52.342;9.662;2023-04-20T06:53:51;101368.19;;;11.72;46.73
11648;BME280;5880;52.342;9.662;2023-04-20T06:56:17;101375.75;;;11.76;46.78
11648;BME280;5880;52.342;9.662;2023-04-20T06:58:42;101378.03;;;11.79;46.55
11648;BME280;5880;52.342;9.662;2023-04-20T07:01:08;101383.34;;;11.74;47.41
11648;BME280;5880;52.342;9.662;2023-04-20T07:03:34;101375.41;;;11.66;47.39
11648;BME280;5880;52.342;9.662;2023-04-20T07:05:59;101372.91;;;11.58;47.79
11648;BME280;5880;52.342;9.662;2023-04-20T07:08:25;101375.28;;;11.54;47.84
11648;BME280;5880;52.342;9.662;2023-04-20T07:10:51;101379.84;;;11.60;48.11
11648;BME280;5880;52.342;9.662;2023-04-20T07:13:16;101377.81;;;11.81;49.32
11648;BME280;5880;52.342;9.662;2023-04-20T07:15:44;101371.88;;;12.16;50.28
11648;BME280;5880;52.342;9.662;2023-04-20T07:18:10;101383.28;;;12.56;50.67
11648;BME280;5880;52.342;9.662;2023-04-20T07:20:36;101387.47;;;12.96;49.96
11648;BME280;5880;52.342;9.662;2023-04-20T07:23:02;101388.00;;;13.23;49.01
11648;BME280;5880;52.342;9.662;2023-04-20T07:25:29;101388.91;;;13.35;47.90
11648;BME280;5880;52.342;9.662;2023-04-20T07:27:57;101388.22;;;13.40;47.45
11648;BME280;5880;52.342;9.662;2023-04-20T07:30:23;101378.28;;;13.39;46.90
11648;BME280;5880;52.342;9.662;2023-04-20T07:32:49;101403.16;;;13.44;46.47
11648;BME280;5880;52.342;9.662;2023-04-20T07:35:14;101388.91;;;13.35;46.12
11648;BME280;5880;52.342;9.662;2023-04-20T07:37:40;101394.06;;;13.25;45.92
11648;BME280;5880;52.342;9.662;2023-04-20T07:40:07;101387.00;;;13.17;46.10
11648;BME280;5880;52.342;9.662;2023-04-20T07:42:34;101395.78;;;13.07;45.96
11648;BME280;5880;52.342;9.662;2023-04-20T07:45:02;101391.19;;;13.01;45.95
11648;BME280;5880;52.342;9.662;2023-04-20T07:47:28;101395.50;;;12.97;46.03
11648;BME280;5880;52.342;9.662;2023-04-20T07:49:54;101391.31;;;12.95;46.47
11648;BME280;5880;52.342;9.662;2023-04-20T07:52:20;101390.34;;;13.19;47.84
11648;BME280;5880;52.342;9.662;2023-04-20T07:54:45;101386.66;;;13.74;48.67
11648;BME280;5880;52.342;9.662;2023-04-20T07:57:11;101383.28;;;14.38;48.56
11648;BME280;5880;52.342;9.662;2023-04-20T07:59:37;101387.22;;;14.77;47.78
11648;BME280;5880;52.342;9.662;2023-04-20T08:02:05;101388.66;;;14.91;45.75
11648;BME280;5880;52.342;9.662;2023-04-20T08:04:30;101388.28;;;14.88;44.92
11648;BME280;5880;52.342;9.662;2023-04-20T08:06:56;101391.75;;;14.83;44.84
11648;BME280;5880;52.342;9.662;2023-04-20T08:09:22;101390.53;;;14.91;45.35
11648;BME280;5880;52.342;9.662;2023-04-20T08:11:48;101384.53;;;15.06;45.45
11648;BME280;5880;52.342;9.662;2023-04-20T08:14:14;101395.00;;;15.20;44.60
11648;BME280;5880;52.342;9.662;2023-04-20T08:16:40;101390.06;;;15.34;44.86
11648;BME280;5880;52.342;9.662;2023-04-20T08:19:05;101394.78;;;15.51;44.94
11648;BME280;5880;52.342;9.662;2023-04-20T08:21:38;101397.81;;;15.66;44.57
11648;BME280;5880;52.342;9.662;2023-04-20T08:24:06;101404.75;;;15.69;43.81
11648;BME280;5880;52.342;9.662;2023-04-20T08:26:32;101398.66;;;15.67;43.13
11648;BME280;5880;52.342;9.662;2023-04-20T08:28:59;101396.38;;;15.63;43.42
11648;BME280;5880;52.342;9.662;2023-04-20T08:31:25;101392.47;;;15.59;42.50
11648;BME280;5880;52.342;9.662;2023-04-20T08:33:51;101398.59;;;15.50;42.41
11648;BME280;5880;52.342;9.662;2023-04-20T08:36:17;101392.31;;;15.37;41.83
11648;BME280;5880;52.342;9.662;2023-04-20T08:38:43;101396.94;;;15.20;41.42
11648;BME280;5880;52.342;9.662;2023-04-20T08:41:09;101385.84;;;15.03;42.01
11648;BME280;5880;52.342;9.662;2023-04-20T08:43:39;101386.94;;;15.02;42.36
11648;BME280;5880;52.342;9.662;2023-04-20T08:46:06;101402.47;;;15.08;42.02
11648;BME280;5880;52.342;9.662;2023-04-20T08:48:36;101393.72;;;15.11;41.99
11648;BME280;5880;52.342;9.662;2023-04-20T08:51:03;101393.34;;;15.19;41.98
11648;BME280;5880;52.342;9.662;2023-04-20T08:53:30;101398.38;;;15.23;41.58
11648;BME280;5880;52.342;9.662;2023-04-20T08:55:57;101393.34;;;15.19;41.41
11648;BME280;5880;52.342;9.662;2023-04-20T08:58:27;101384.97;;;15.14;41.30
11648;BME280;5880;52.342;9.662;2023-04-20T09:00:53;101383.53;;;15.12;41.19
11648;BME280;5880;52.342;9.662;2023-04-20T09:03:37;101390.84;;;15.18;41.27
11648;BME280;5880;52.342;9.662;2023-04-20T09:06:16;101389.88;;;15.24;41.29
11648;BME280;5880;52.342;9.662;2023-04-20T09:08:43;101390.94;;;15.23;41.06
11648;BME280;5880;52.342;9.662;2023-04-20T09:11:27;101395.84;;;15.21;40.74
11648;BME280;5880;52.342;9.662;2023-04-20T09:14:06;101390.63;;;15.08;40.35
11648;BME280;5880;52.342;9.662;2023-04-20T09:16:35;101388.63;;;15.03;40.89
11648;BME280;5880;52.342;9.662;2023-04-20T09:19:02;101391.69;;;15.07;41.04
11648;BME280;5880;52.342;9.662;2023-04-20T09:21:28;101385.22;;;15.13;41.02
11648;BME280;5880;52.342;9.662;2023-04-20T09:24:04;101393.09;;;15.21;41.22
11648;BME280;5880;52.342;9.662;2023-04-20T09:26:35;101397.88;;;15.26;40.88
11648;BME280;5880;52.342;9.662;2023-04-20T09:29:03;101400.97;;;15.29;40.59
11648;BME280;5880;52.342;9.662;2023-04-20T09:31:40;101395.09;;;15.26;40.49
11648;BME280;5880;52.342;9.662;2023-04-20T09:34:06;101400.63;;;15.26;40.47
11648;BME280;5880;52.342;9.662;2023-04-20T09:36:39;101411.31;;;15.22;40.17
11648;BME280;5880;52.342;9.662;2023-04-20T09:39:29;101408.78;;;15.20;40.21
11648;BME280;5880;52.342;9.662;2023-04-20T09:42:03;101411.06;;;15.12;39.96
11648;BME280;5880;52.342;9.662;2023-04-20T09:44:31;101404.53;;;15.01;39.74
11648;BME280;5880;52.342;9.662;2023-04-20T09:46:58;101395.72;;;14.87;39.32
11648;BME280;5880;52.342;9.662;2023-04-20T09:49:24;101399.78;;;14.85;40.19
11648;BME280;5880;52.342;9.662;2023-04-20T09:51:51;101396.03;;;14.91;40.37
11648;BME280;5880;52.342;9.662;2023-04-20T09:54:18;101400.91;;;15.01;40.19
11648;BME280;5880;52.342;9.662;2023-04-20T09:56:44;101397.94;;;15.02;39.96
11648;BME280;5880;52.342;9.662;2023-04-20T09:59:11;101410.88;;;15.02;39.81
11648;BME280;5880;52.342;9.662;2023-04-20T10:01:37;101400.91;;;15.01;40.10
11648;BME280;5880;52.342;9.662;2023-04-20T10:04:07;101395.53;;;15.06;40.02
11648;BME280;5880;52.342;9.662;2023-04-20T10:06:39;101388.22;;;15.11;40.17
11648;BME280;5880;52.342;9.662;2023-04-20T10:09:07;101396.94;;;15.20;39.95
11648;BME280;5880;52.342;9.662;2023-04-20T10:11:35;101396.22;;;15.25;39.93
11648;BME280;5880;52.342;9.662;2023-04-20T10:14:20;101402.13;;;15.33;39.68
11648;BME280;5880;52.342;9.662;2023-04-20T10:17:02;101401.91;;;15.35;39.53
11648;BME280;5880;52.342;9.662;2023-04-20T10:22:06;101411.13;;;15.40;39.41
11648;BME280;5880;52.342;9.662;2023-04-20T10:24:32;101408.09;;;15.42;39.34
11648;BME280;5880;52.342;9.662;2023-04-20T10:26:59;101408.47;;;15.46;39.46
11648;BME280;5880;52.342;9.662;2023-04-20T10:29:28;101411.63;;;15.54;39.18
11648;BME280;5880;52.342;9.662;2023-04-20T10:31:54;101410.22;;;15.52;38.73
11648;BME280;5880;52.342;9.662;2023-04-20T10:34:34;101414.22;;;15.44;38.43
11648;BME280;5880;52.342;9.662;2023-04-20T10:37:12;101411.59;;;15.37;38.70
11648;BME280;5880;52.342;9.662;2023-04-20T10:39:47;101418.44;;;15.35;38.69
11648;BME280;5880;52.342;9.662;2023-04-20T10:42:13;101404.78;;;15.28;38.79
11648;BME280;5880;52.342;9.662;2023-04-20T10:44:52;101403.38;;;15.26;38.62
11648;BME280;5880;52.342;9.662;2023-04-20T10:47:31;101398.38;;;15.23;39.07
11648;BME280;5880;52.342;9.662;2023-04-20T10:50:13;101397.28;;;15.24;39.16
11648;BME280;5880;52.342;9.662;2023-04-20T10:52:42;101396.53;;;15.28;39.24
11648;BME280;5880;52.342;9.662;2023-04-20T10:55:24;101383.59;;;15.29;38.74
11648;BME280;5880;52.342;9.662;2023-04-20T10:57:51;101389.69;;;15.31;38.55
11648;BME280;5880;52.342;9.662;2023-04-20T11:00:24;101386.47;;;15.34;38.90
11648;BME280;5880;52.342;9.662;2023-04-20T11:02:55;101395.34;;;15.36;38.56
11648;BME280;5880;52.342;9.662;2023-04-20T11:05:25;101401.91;;;15.35;38.67
11648;BME280;5880;52.342;9.662;2023-04-20T11:07:58;101411.34;;;15.39;38.32
11648;BME280;5880;52.342;9.662;2023-04-20T11:10:37;101402.00;;;15.40;38.13
11648;BME280;5880;52.342;9.662;2023-04-20T11:13:04;101392.66;;;15.41;38.47
11648;BME280;5880;52.342;9.662;2023-04-20T11:15:31;101399.94;;;15.47;38.73
11648;BME280;5880;52.342;9.662;2023-04-20T11:18:09;101398.97;;;15.53;38.32
11648;BME280;5880;52.342;9.662;2023-04-20T11:20:37;101396.94;;;15.49;38.14
11648;BME280;5880;52.342;9.662;2023-04-20T11:23:13;101396.94;;;15.49;38.18
11648;BME280;5880;52.342;9.662;2023-04-20T11:25:52;101381.75;;;15.46;38.25
11648;BME280;5880;52.342;9.662;2023-04-20T11:28:18;101384.41;;;15.41;38.06
11648;BME280;5880;52.342;9.662;2023-04-20T11:30:43;101380.31;;;15.44;38.20
11648;BME280;5880;52.342;9.662;2023-04-20T11:33:10;101379.59;;;15.48;38.38
11648;BME280;5880;52.342;9.662;2023-04-20T11:35:38;101388.28;;;15.57;38.37
11648;BME280;5880;52.342;9.662;2023-04-20T11:38:04;101379.25;;;15.61;38.26
11648;BME280;5880;52.342;9.662;2023-04-20T11:40:30;101375.53;;;15.68;38.25
11648;BME280;5880;52.342;9.662;2023-04-20T11:42:57;101369.06;;;15.74;38.22
11648;BME280;5880;52.342;9.662;2023-04-20T11:45:24;101364.38;;;15.74;38.31
11648;BME280;5880;52.342;9.662;2023-04-20T11:47:50;101364.47;;;15.79;37.92
11648;BME280;5880;52.342;9.662;2023-04-20T11:50:17;101366.38;;;15.79;37.97
11648;BME280;5880;52.342;9.662;2023-04-20T11:52:43;101347.91;;;15.79;38.15
11648;BME280;5880;52.342;9.662;2023-04-20T11:55:08;101345.84;;;15.87;38.20
11648;BME280;5880;52.342;9.662;2023-04-20T11:57:35;101351.19;;;15.93;37.76
11648;BME280;5880;52.342;9.662;2023-04-20T12:00:01;101350.19;;;15.99;38.01
11648;BME280;5880;52.342;9.662;2023-04-20T12:02:28;101335.13;;;16.07;38.13
11648;BME280;5880;52.342;9.662;2023-04-20T12:04:54;101339.97;;;16.17;38.14
11648;BME280;5880;52.342;9.662;2023-04-20T12:07:21;101338.72;;;16.24;38.02
11648;BME280;5880;52.342;9.662;2023-04-20T12:09:46;101339.88;;;16.29;37.64
11648;BME280;5880;52.342;9.662;2023-04-20T12:12:12;101329.19;;;16.32;37.57
11648;BME280;5880;52.342;9.662;2023-04-20T12:14:38;101341.94;;;16.38;37.50
11648;BME280;5880;52.342;9.662;2023-04-20T12:17:04;101342.59;;;16.45;37.68
11648;BME280;5880;52.342;9.662;2023-04-20T12:19:30;101340.25;;;16.54;37.58
11648;BME280;5880;52.342;9.662;2023-04-20T12:21:56;101337.06;;;16.62;37.64
11648;BME280;5880;52.342;9.662;2023-04-20T12:24:22;101331.91;;;16.71;37.77
11648;BME280;5880;52.342;9.662;2023-04-20T12:26:48;101319.03;;;16.77;37.56
11648;BME280;5880;52.342;9.662;2023-04-20T12:29:13;101318.34;;;16.86;37.09
11648;BME280;5880;52.342;9.662;2023-04-20T12:31:39;101322.25;;;16.91;37.30
11648;BME280;5880;52.342;9.662;2023-04-20T12:34:05;101328.91;;;16.95;36.76
11648;BME280;5880;52.342;9.662;2023-04-20T12:36:31;101316.50;;;16.97;37.05
11648;BME280;5880;52.342;9.662;2023-04-20T12:38:57;101322.94;;;17.03;36.81
11648;BME280;5880;52.342;9.662;2023-04-20T12:41:23;101311.06;;;17.02;36.60
11648;BME280;5880;52.342;9.662;2023-04-20T12:43:49;101318.59;;;17.07;36.18
11648;BME280;5880;52.342;9.662;2023-04-20T12:46:16;101302.84;;;17.07;36.30
11648;BME280;5880;52.342;9.662;2023-04-20T12:48:42;101303.16;;;17.11;36.63
11648;BME280;5880;52.342;9.662;2023-04-20T12:51:09;101315.69;;;17.19;36.85
11648;BME280;5880;52.342;9.662;2023-04-20T12:53:35;101312.69;;;17.25;36.55
11648;BME280;5880;52.342;9.662;2023-04-20T12:56:00;101296.97;;;17.26;36.12
11648;BME280;5880;52.342;9.662;2023-04-20T12:58:26;101312.75;;;17.30;36.17
11648;BME280;5880;52.342;9.662;2023-04-20T13:00:52;101297.59;;;17.33;36.12
11648;BME280;5880;52.342;9.662;2023-04-20T13:03:17;101295.41;;;17.35;36.37